createdAt,value
2018-07-11T00:02:12.653Z,100986.37
2018-07-11T00:04:41.724Z,100993.64
2018-07-11T00:07:10.158Z,100994.50
2018-07-11T00:09:38.577Z,100991.07
2018-07-11T00:12:06.969Z,100989.36
2018-07-11T00:14:35.866Z,101003.08
2018-07-11T00:17:06.773Z,100997.93
2018-07-11T00:19:35.911Z,100998.36
2018-07-11T00:22:04.392Z,100994.50
2018-07-11T00:24:32.851Z,100996.65
2018-07-11T00:27:01.937Z,100995.79
2018-07-11T00:29:30.633Z,100994.53
2018-07-11T00:31:59.293Z,100993.25
2018-07-11T00:34:27.808Z,100994.10
2018-07-11T00:36:57.326Z,100993.24
2018-07-11T00:39:25.782Z,100996.67
2018-07-11T00:41:54.371Z,100991.07
2018-07-11T00:44:22.875Z,101002.19
2018-07-11T00:46:52.065Z,101003.05
2018-07-11T00:49:20.877Z,100997.46
2018-07-11T00:51:49.419Z,100991.45
2018-07-11T00:54:17.881Z,100991.84
2018-07-11T00:56:46.392Z,100993.56
2018-07-11T00:59:21.539Z,100990.56
2018-07-11T01:01:50.304Z,100995.27
2018-07-11T01:04:18.789Z,100992.66
2018-07-11T01:06:47.370Z,100990.09
2018-07-11T01:09:16.257Z,100992.66
2018-07-11T01:11:45.680Z,100994.76
2018-07-11T01:14:14.980Z,100986.60
2018-07-11T01:16:43.434Z,100988.75
2018-07-11T01:19:12.247Z,100992.16
2018-07-11T01:21:40.735Z,101000.26
2018-07-11T01:24:09.145Z,101001.10
2018-07-11T01:26:39.235Z,101002.37
2018-07-11T01:29:08.133Z,101003.56
2018-07-11T01:31:36.537Z,101006.56
2018-07-11T01:34:05.077Z,101014.73
2018-07-11T01:36:33.558Z,101008.33
2018-07-11T01:39:02.636Z,101013.50
2018-07-11T01:41:31.119Z,101012.66
2018-07-11T01:43:59.714Z,101011.83
2018-07-11T01:46:51.953Z,101011.84
2018-07-11T01:49:21.447Z,101015.68
2018-07-11T01:52:01.229Z,101004.11
2018-07-11T01:54:29.670Z,101006.70
2018-07-11T01:56:58.237Z,101005.41
2018-07-11T01:59:32.545Z,101004.55
2018-07-11T02:02:01.995Z,101000.68
2018-07-11T02:04:31.024Z,101005.82
2018-07-11T02:06:59.664Z,101010.95
2018-07-11T02:09:28.104Z,101007.52
2018-07-11T02:11:56.595Z,101014.38
2018-07-11T02:14:25.575Z,101006.66
2018-07-11T02:16:54.282Z,101012.22
2018-07-11T02:19:23.499Z,101013.03
2018-07-11T02:21:53.429Z,101012.59
2018-07-11T02:24:24.791Z,101008.70
2018-07-11T02:26:53.334Z,101008.66
2018-07-11T02:29:22.220Z,101009.08
2018-07-11T02:31:51.471Z,101006.09
2018-07-11T02:34:24.139Z,101004.35
2018-07-11T02:36:52.585Z,101013.31
2018-07-11T02:39:21.064Z,101016.31
2018-07-11T02:41:49.535Z,101019.30
2018-07-11T02:44:18.045Z,101017.61
2018-07-11T02:46:51.710Z,101024.89
2018-07-11T02:49:20.337Z,101022.73
2018-07-11T02:51:48.883Z,101024.45
2018-07-11T02:54:17.448Z,101022.31
2018-07-11T02:56:45.903Z,101023.97
2018-07-11T02:59:14.281Z,101021.81
2018-07-11T03:01:42.652Z,101020.09
2018-07-11T03:04:11.129Z,101020.09
2018-07-11T03:06:39.828Z,101020.50
2018-07-11T03:09:08.862Z,101021.76
2018-07-11T03:11:37.665Z,101025.17
2018-07-11T03:14:06.133Z,101023.89
2018-07-11T03:16:34.565Z,101025.11
2018-07-11T03:19:03.119Z,101025.52
2018-07-11T03:21:31.516Z,101026.38
2018-07-11T03:24:00.033Z,101027.70
2018-07-11T03:26:28.527Z,101029.05
2018-07-11T03:28:57.056Z,101023.92
2018-07-11T03:31:25.524Z,101030.78
2018-07-11T03:33:54.037Z,101031.62
2018-07-11T03:36:22.553Z,101032.02
2018-07-11T03:38:50.964Z,101028.12
2018-07-11T03:41:19.356Z,101031.97
2018-07-11T03:43:47.856Z,101032.91
2018-07-11T03:46:16.367Z,101041.50
2018-07-11T03:48:44.797Z,101039.79
2018-07-11T03:51:13.235Z,101045.78
2018-07-11T03:53:41.688Z,101046.20
2018-07-11T03:56:10.123Z,101041.03
2018-07-11T03:58:38.568Z,101046.97
2018-07-11T04:01:07.067Z,101053.31
2018-07-11T04:03:35.460Z,101057.59
2018-07-11T04:06:03.913Z,101054.19
2018-07-11T04:08:32.295Z,101052.50
2018-07-11T04:11:00.695Z,101054.64
2018-07-11T04:13:29.127Z,101051.72
2018-07-11T04:15:57.560Z,101051.77
2018-07-11T04:18:29.766Z,101056.92
2018-07-11T04:20:59.099Z,101062.93
2018-07-11T04:23:28.071Z,101065.98
2018-07-11T04:25:58.647Z,101066.00
2018-07-11T04:28:28.216Z,101071.59
2018-07-11T04:30:56.868Z,101073.73
2018-07-11T04:33:25.377Z,101073.39
2018-07-11T04:35:54.776Z,101078.58
2018-07-11T04:38:23.441Z,101070.88
2018-07-11T04:40:51.941Z,101071.80
2018-07-11T04:43:20.590Z,101074.40
2018-07-11T04:45:49.535Z,101064.60
2018-07-11T04:48:20.012Z,101061.55
2018-07-11T04:50:49.272Z,101070.17
2018-07-11T04:53:22.763Z,101064.17
2018-07-11T04:55:57.197Z,101065.41
2018-07-11T04:58:25.851Z,101064.17
2018-07-11T05:00:54.484Z,101069.33
2018-07-11T05:03:23.112Z,101073.20
2018-07-11T05:05:51.695Z,101071.55
2018-07-11T05:08:20.976Z,101070.30
2018-07-11T05:10:49.525Z,101068.61
2018-07-11T05:13:17.959Z,101065.64
2018-07-11T05:15:46.454Z,101069.95
2018-07-11T05:18:15.419Z,101071.23
2018-07-11T05:20:44.912Z,101068.66
2018-07-11T05:23:13.352Z,101072.95
2018-07-11T05:25:42.261Z,101077.22
2018-07-11T05:28:10.697Z,101070.75
2018-07-11T05:30:39.137Z,101073.75
2018-07-11T05:33:07.604Z,101074.17
2018-07-11T05:35:36.154Z,101078.46
2018-07-11T05:38:04.601Z,101076.33
2018-07-11T05:40:32.982Z,101079.32
2018-07-11T05:43:01.424Z,101081.91
2018-07-11T05:45:29.846Z,101082.38
2018-07-11T05:47:58.315Z,101079.81
2018-07-11T05:50:26.748Z,101077.25
2018-07-11T05:52:55.217Z,101080.25
2018-07-11T05:55:23.679Z,101076.43
2018-07-11T05:57:52.126Z,101070.00
2018-07-11T06:00:20.549Z,101077.72
2018-07-11T06:02:48.976Z,101073.01
2018-07-11T06:05:17.413Z,101078.16
2018-07-11T06:07:45.929Z,101079.02
2018-07-11T06:10:14.317Z,101085.08
2018-07-11T06:12:42.733Z,101089.80
2018-07-11T06:15:11.189Z,101091.09
2018-07-11T06:17:39.613Z,101093.66
2018-07-11T06:20:08.064Z,101090.69
2018-07-11T06:22:37.219Z,101090.23
2018-07-11T06:25:06.029Z,101091.55
2018-07-11T06:27:34.429Z,101094.98
2018-07-11T06:30:03.001Z,101096.70
2018-07-11T06:32:31.427Z,101099.28
2018-07-11T06:34:59.864Z,101107.04
2018-07-11T06:37:28.272Z,101104.04
2018-07-11T06:39:56.714Z,101111.77
2018-07-11T06:42:25.159Z,101113.05
2018-07-11T06:44:53.777Z,101115.23
2018-07-11T06:47:22.246Z,101122.95
2018-07-11T06:49:50.635Z,101125.96
2018-07-11T06:52:19.461Z,101132.83
2018-07-11T06:54:47.882Z,101124.67
2018-07-11T06:57:16.314Z,101133.71
2018-07-11T06:59:44.767Z,101124.69
2018-07-11T07:02:13.212Z,101118.72
2018-07-11T07:04:41.668Z,101126.44
2018-07-11T07:07:10.199Z,101124.73
2018-07-11T07:09:38.640Z,101126.88
2018-07-11T07:12:07.472Z,101127.28
2018-07-11T07:14:35.929Z,101128.58
2018-07-11T07:17:04.344Z,101123.42
2018-07-11T07:19:32.884Z,101118.25
2018-07-11T07:22:01.376Z,101125.13
2018-07-11T07:24:29.861Z,101126.81
2018-07-11T07:26:58.280Z,101118.19
2018-07-11T07:29:26.659Z,101118.63
2018-07-11T07:31:55.073Z,101111.27
2018-07-11T07:34:23.501Z,101107.39
2018-07-11T07:36:51.959Z,101101.77
2018-07-11T07:39:20.387Z,101106.09
2018-07-11T07:41:48.803Z,101103.95
2018-07-11T07:44:17.250Z,101110.83
2018-07-11T07:46:49.889Z,101108.17
2018-07-11T07:49:18.457Z,101104.75
2018-07-11T07:51:46.927Z,101101.73
2018-07-11T07:54:15.460Z,101090.56
2018-07-11T07:56:44.624Z,101089.70
2018-07-11T07:59:13.112Z,101093.52
2018-07-11T08:01:41.560Z,101090.05
2018-07-11T08:04:11.253Z,101088.23
2018-07-11T08:06:39.708Z,101095.03
2018-07-11T08:09:08.151Z,101083.84
2018-07-11T08:11:36.547Z,101089.00
2018-07-11T08:14:05.030Z,101085.17
2018-07-11T08:16:33.536Z,101092.86
2018-07-11T08:19:01.961Z,101091.88
2018-07-11T08:21:30.519Z,101087.53
2018-07-11T08:24:10.279Z,101089.70
2018-07-11T08:26:50.044Z,101095.64
2018-07-11T08:31:31.664Z,101107.58
2018-07-11T08:34:15.502Z,101094.16
2018-07-11T08:36:59.006Z,101090.75
2018-07-11T08:40:40.361Z,101092.48
2018-07-11T08:43:41.888Z,101088.55
2018-07-11T08:46:21.313Z,101087.16
2018-07-11T08:51:08.233Z,101082.78
2018-07-11T08:54:03.344Z,101081.30
2018-07-11T08:56:43.011Z,101074.80
2018-07-11T09:01:31.834Z,101077.38
2018-07-11T09:08:23.656Z,101081.52
2018-07-11T09:11:00.161Z,101076.95
2018-07-11T09:15:42.433Z,101069.50
2018-07-11T09:18:42.588Z,101068.01
2018-07-11T09:23:32.410Z,101072.66
2018-07-11T09:26:00.821Z,101071.72
2018-07-11T09:28:29.320Z,101074.28
2018-07-11T09:30:57.720Z,101070.30
2018-07-11T09:33:26.181Z,101069.27
2018-07-11T09:35:54.660Z,101065.41
2018-07-11T09:38:23.088Z,101068.34
2018-07-11T09:40:51.644Z,101065.26
2018-07-11T09:43:20.192Z,101060.09
2018-07-11T09:45:48.713Z,101054.78
2018-07-11T09:48:17.286Z,101058.92
2018-07-11T09:50:45.734Z,101059.14
2018-07-11T09:53:14.379Z,101050.24
2018-07-11T09:55:42.889Z,101051.42
2018-07-11T09:58:11.288Z,101049.56
2018-07-11T10:01:43.456Z,101057.70
2018-07-11T10:04:13.309Z,101039.24
2018-07-11T10:06:41.793Z,101043.13
2018-07-11T10:09:10.280Z,101043.05
2018-07-11T10:11:38.736Z,101043.05
2018-07-11T10:14:07.164Z,101045.22
2018-07-11T10:16:35.614Z,101034.25
2018-07-11T10:19:05.069Z,101029.75
2018-07-11T10:21:34.810Z,101030.37
2018-07-11T10:24:03.371Z,101023.03
2018-07-11T10:26:31.845Z,101028.25
2018-07-11T10:29:00.353Z,101026.86
2018-07-11T10:31:29.549Z,101021.62
2018-07-11T10:33:58.134Z,101019.30
2018-07-11T10:36:26.565Z,101012.16
2018-07-11T10:38:55.701Z,101011.36
2018-07-11T10:41:24.109Z,101014.40
2018-07-11T10:43:52.563Z,101008.59
2018-07-11T11:27:08.653Z,100985.31
2018-07-11T11:29:37.200Z,100975.52
2018-07-11T11:32:06.197Z,100992.07
2018-07-11T11:34:34.684Z,100993.36
2018-07-11T11:37:03.278Z,100988.05
2018-07-11T11:39:31.793Z,100990.33
2018-07-11T11:42:00.329Z,100983.87
2018-07-11T13:30:46.539Z,100936.77
2018-07-11T13:33:16.148Z,100924.16
2018-07-11T13:35:44.664Z,100925.45
2018-07-11T13:38:14.202Z,100924.87
2018-07-11T13:40:43.046Z,100927.88
2018-07-11T13:43:12.433Z,100921.05
2018-07-11T13:45:40.978Z,100919.05
2018-07-11T13:48:09.412Z,100921.79
2018-07-11T13:50:37.852Z,100921.89
2018-07-11T13:53:06.365Z,100925.48
2018-07-11T13:55:34.759Z,100948.67
2018-07-11T13:58:03.461Z,100929.42
2018-07-11T14:00:33.288Z,100923.86
2018-07-11T14:03:02.029Z,100933.95
2018-07-11T14:05:30.553Z,100928.80
2018-07-11T14:07:59.114Z,100926.23
2018-07-11T14:10:27.594Z,100926.23
2018-07-11T14:12:56.127Z,100925.95
2018-07-11T14:15:24.533Z,100931.73
2018-07-11T14:17:52.981Z,100932.31
2018-07-11T14:20:21.634Z,100941.98
2018-07-11T14:22:50.126Z,100951.70
2018-07-11T14:25:20.851Z,100965.06
2018-07-11T14:27:50.623Z,100969.59
2018-07-11T14:30:23.561Z,100970.44
2018-07-11T14:32:55.576Z,100979.02
2018-07-11T14:35:24.046Z,100980.95
2018-07-11T14:37:52.596Z,100999.33
2018-07-11T14:40:22.116Z,101010.18
2018-07-11T14:42:50.636Z,101009.32
2018-07-11T14:45:19.166Z,101003.45
2018-07-11T14:48:09.873Z,100999.69
2018-07-11T14:50:38.395Z,100999.44
2018-07-11T14:53:07.022Z,101005.34
2018-07-11T14:55:35.567Z,100996.14
2018-07-11T14:58:04.130Z,100992.08
2018-07-11T15:00:32.555Z,100985.51
2018-07-11T15:03:02.509Z,100987.75
2018-07-11T15:05:31.101Z,100982.47
2018-07-11T15:07:59.767Z,100968.03
2018-07-11T15:10:28.224Z,100970.09
2018-07-11T15:12:56.810Z,100964.14
2018-07-11T15:15:25.335Z,100955.92
2018-07-11T15:17:53.764Z,100955.98
2018-07-11T15:20:22.746Z,100945.77
2018-07-11T15:22:51.819Z,100936.05
2018-07-11T15:25:20.308Z,100933.02
2018-07-11T15:27:48.924Z,100932.95
2018-07-11T15:30:17.508Z,100934.86
2018-07-11T15:32:46.173Z,100930.97
2018-07-11T15:35:14.639Z,100927.05
2018-07-11T15:37:43.253Z,100935.17
2018-07-11T15:40:11.720Z,100946.55
2018-07-11T15:42:40.612Z,100940.32
2018-07-11T15:45:09.188Z,100939.53
2018-07-11T15:47:41.815Z,100930.08
2018-07-11T15:50:10.367Z,100939.13
2018-07-11T15:52:39.740Z,100908.82
2018-07-11T15:55:09.351Z,100945.39
2018-07-11T15:57:44.012Z,100934.60
2018-07-11T16:00:14.902Z,100940.61
2018-07-11T16:02:46.377Z,100942.77
2018-07-11T16:05:17.518Z,100942.73
2018-07-11T16:07:47.759Z,100942.77
2018-07-11T16:10:16.920Z,100949.75
2018-07-11T16:12:45.396Z,100948.96
2018-07-11T16:15:13.888Z,100955.38
2018-07-11T16:17:42.307Z,100950.80
2018-07-11T16:20:10.805Z,100950.18
2018-07-11T16:22:39.274Z,100948.44
2018-07-11T16:25:07.858Z,100938.56
2018-07-11T16:27:36.407Z,100934.63
2018-07-11T16:30:05.671Z,100932.97
2018-07-11T16:32:34.551Z,100935.53
2018-07-11T16:35:03.046Z,100936.42
2018-07-11T16:37:31.806Z,100934.80
2018-07-11T16:40:00.253Z,100925.88
2018-07-11T16:42:28.828Z,100927.14
2018-07-11T16:44:57.233Z,100937.95
2018-07-11T16:47:26.386Z,100943.22
2018-07-11T16:49:55.692Z,100954.03
2018-07-11T16:52:24.380Z,100959.59
2018-07-11T16:54:52.978Z,100964.28
2018-07-11T16:57:23.695Z,100962.10
2018-07-11T16:59:57.462Z,100964.40
2018-07-11T17:02:27.639Z,100965.74
2018-07-11T17:05:03.197Z,100977.91
2018-07-11T17:07:31.769Z,100969.36
2018-07-11T17:10:04.821Z,100977.59
2018-07-11T17:12:33.610Z,100974.19
2018-07-11T17:15:02.152Z,100975.49
2018-07-11T17:17:34.658Z,100974.33
2018-07-11T17:20:10.672Z,100970.08
2018-07-11T17:22:56.150Z,100970.88
2018-07-11T17:25:28.826Z,100969.20
2018-07-11T17:28:02.726Z,100967.92
2018-07-11T17:30:40.723Z,100970.14
2018-07-11T17:33:10.375Z,100972.39
2018-07-11T17:35:52.797Z,100973.61
2018-07-11T17:38:28.072Z,100974.42
2018-07-11T17:40:57.635Z,100967.48
2018-07-11T17:43:34.928Z,100973.94
2018-07-11T17:46:05.737Z,100962.80
2018-07-11T17:48:50.385Z,100970.93
2018-07-11T17:52:25.622Z,100971.37
2018-07-11T17:55:10.328Z,100978.23
2018-07-11T17:57:50.588Z,100974.27
2018-07-11T18:00:55.624Z,100976.77
2018-07-11T18:03:44.525Z,100971.16
2018-07-11T18:06:31.483Z,100977.64
2018-07-11T18:09:10.904Z,100978.16
2018-07-11T18:11:53.908Z,100978.16
2018-07-11T18:15:31.353Z,100972.51
2018-07-11T18:19:18.452Z,100982.02
2018-07-11T18:24:02.771Z,100981.63
2018-07-11T18:26:41.794Z,100982.92
2018-07-11T18:29:32.662Z,100984.22
2018-07-11T18:33:45.042Z,100981.21
2018-07-11T18:36:24.773Z,100982.09
2018-07-11T18:38:59.559Z,100980.84
2018-07-11T18:41:38.247Z,100979.58
2018-07-11T18:44:16.782Z,100986.50
2018-07-11T18:46:52.639Z,100979.61
2018-07-11T18:49:28.473Z,100976.60
2018-07-11T18:52:41.367Z,100978.70
2018-07-11T18:55:23.627Z,100973.96
2018-07-11T18:58:09.485Z,100971.78
2018-07-11T19:00:46.737Z,100981.24
2018-07-11T19:03:26.396Z,100976.89
2018-07-11T19:06:08.421Z,100973.36
2018-07-11T19:09:14.175Z,100968.16
2018-07-11T19:12:04.366Z,100972.51
2018-07-11T19:14:43.492Z,100974.25
2018-07-11T19:17:26.451Z,100975.13
2018-07-11T19:20:10.641Z,100972.51
2018-07-11T19:22:49.239Z,100975.98
2018-07-11T19:25:31.180Z,100970.85
2018-07-11T19:28:14.545Z,100982.48
2018-07-11T19:30:57.622Z,100984.22
2018-07-11T19:33:51.500Z,100986.45
2018-07-11T19:36:34.816Z,100981.37
2018-07-11T19:39:27.462Z,100971.00
2018-07-11T19:42:06.949Z,100973.16
2018-07-11T19:44:50.613Z,100981.73
2018-07-11T19:49:34.853Z,100986.45
2018-07-11T19:52:09.743Z,100998.11
2018-07-11T19:54:50.490Z,100996.91
2018-07-11T19:57:19.666Z,100993.09
2018-07-11T19:59:48.283Z,100993.19
2018-07-11T20:02:17.044Z,100990.58
2018-07-11T20:04:47.561Z,100992.73
2018-07-11T20:07:18.170Z,100990.09
2018-07-11T20:09:48.068Z,100998.66
2018-07-11T20:12:18.657Z,100999.95
2018-07-11T20:14:47.233Z,101002.57
2018-07-11T20:17:17.270Z,101008.22
2018-07-11T20:19:46.912Z,101013.91
2018-07-11T20:22:15.720Z,101021.72
2018-07-11T20:24:44.287Z,101020.08
2018-07-11T20:27:12.815Z,101017.53
2018-07-11T20:29:41.333Z,101011.94
2018-07-11T20:32:09.864Z,101011.08
2018-07-11T20:34:39.834Z,101014.52
2018-07-11T20:37:08.313Z,101011.08
2018-07-11T20:39:36.903Z,101015.81
2018-07-11T20:42:05.343Z,101017.95
2018-07-11T20:44:33.848Z,101016.28
2018-07-11T20:47:04.771Z,101019.72
2018-07-11T20:49:33.303Z,101023.61
2018-07-11T20:52:03.868Z,101024.09
2018-07-11T20:54:32.343Z,101021.05
2018-07-11T20:57:00.973Z,101021.44
2018-07-11T21:01:43.960Z,101032.19
2018-07-11T21:04:27.351Z,101018.06
2018-07-11T21:12:00.556Z,101028.86
2018-07-11T21:14:38.939Z,101024.15
2018-07-11T21:17:18.748Z,101022.88
2018-07-11T21:19:47.637Z,101028.49
2018-07-11T21:22:16.097Z,101028.94
2018-07-11T21:24:45.420Z,101035.86
2018-07-11T21:27:13.862Z,101033.30
2018-07-11T21:29:42.735Z,101038.93
2018-07-11T21:32:12.212Z,101041.10
2018-07-11T21:34:40.833Z,101036.77
2018-07-11T21:37:09.403Z,101033.30
2018-07-11T21:39:37.938Z,101033.80
2018-07-11T21:42:06.805Z,101035.09
2018-07-11T21:44:35.219Z,101034.22
2018-07-11T21:47:03.668Z,101030.79
2018-07-11T21:49:32.173Z,101031.21
2018-07-11T21:52:00.635Z,101032.46
2018-07-11T21:54:29.128Z,101036.34
2018-07-11T21:56:57.560Z,101034.17
2018-07-11T21:59:26.337Z,101039.79
2018-07-11T22:01:54.748Z,101038.91
2018-07-11T22:04:23.214Z,101032.50
2018-07-11T22:06:51.681Z,101027.30
2018-07-11T22:09:20.106Z,101030.33
2018-07-11T22:11:48.571Z,101032.05
2018-07-11T22:14:17.600Z,101029.85
2018-07-11T22:16:46.123Z,101037.17
2018-07-11T22:19:14.488Z,101033.72
2018-07-11T22:21:41.748Z,101038.41
2018-07-11T22:24:08.975Z,101037.09
2018-07-11T22:26:36.834Z,101036.63
2018-07-11T22:29:04.085Z,101037.12
2018-07-11T22:31:35.502Z,101035.38
2018-07-11T22:34:02.751Z,101034.13
2018-07-11T22:36:29.960Z,101037.14
2018-07-11T22:38:57.201Z,101038.84
2018-07-11T22:41:24.412Z,101039.28
2018-07-11T22:43:51.710Z,101029.83
2018-07-11T22:46:19.040Z,101038.43
2018-07-11T22:48:46.301Z,101030.20
2018-07-11T22:51:14.482Z,101032.38
2018-07-11T22:53:41.993Z,101034.98
2018-07-11T22:56:09.204Z,101034.55
2018-07-11T22:58:36.708Z,101030.70
2018-07-11T23:01:03.924Z,101036.77
2018-07-11T23:03:31.159Z,101030.27
2018-07-11T23:05:58.391Z,101025.97
2018-07-11T23:08:25.587Z,101032.44
2018-07-11T23:10:52.758Z,101025.57
2018-07-11T23:13:20.000Z,101032.05
2018-07-11T23:15:47.236Z,101026.45
2018-07-11T23:18:14.546Z,101027.36
2018-07-11T23:20:41.801Z,101029.05
2018-07-11T23:23:09.019Z,101028.62
2018-07-11T23:25:36.204Z,101029.50
2018-07-11T23:28:03.419Z,101027.80
2018-07-11T23:30:30.667Z,101030.84
2018-07-11T23:32:58.732Z,101034.30
2018-07-11T23:35:25.961Z,101022.72
2018-07-11T23:37:53.176Z,101028.34
2018-07-11T23:40:20.463Z,101026.19
2018-07-11T23:42:47.647Z,101029.65
2018-07-11T23:45:14.869Z,101024.89
2018-07-11T23:47:42.125Z,101029.59
2018-07-11T23:50:09.338Z,101026.13
2018-07-11T23:52:37.690Z,101030.00
2018-07-11T23:55:05.512Z,101034.68
2018-07-11T23:57:32.852Z,101031.23
